Ratibor, Texas
Current Conditions -  °F | °C
As of 12:15 PM on Thursday 29 Jan 2015 (Local Time) from KTPL Reporting Station
Broken Clouds Broken Clouds  
Wind Chill: 70°   Ceiling: 11000
Heat Index: 70°   Visibility: 10mi
Dew Point: 45°   Wind: 10mph
Humidity: 40%   Direction: 350°N
Pressure: 30.24"   Gusts: NA
Location:  31.0795°N, 97.3287°W
Report Text: KTPL 291815Z AUTO 35009KT 10SM BKN110 21/07 A3024 RMK AO1
Loading
Personal Weather Stations






























Interactive Weather Map New forecast layout! Learn more

10-Day Weather Forecast

Advertisements
Track Severe Weather on mobile